createdAt,value
2022-11-19T00:04:53.043Z,30.43
2022-11-19T00:09:54.740Z,29.73
2022-11-19T00:14:56.439Z,30.07
2022-11-19T00:19:58.248Z,32.80
2022-11-19T00:24:59.838Z,29.93
2022-11-19T00:30:03.579Z,28.70
2022-11-19T00:35:07.450Z,30.83
2022-11-19T00:40:11.835Z,29.00
2022-11-19T00:45:15.767Z,29.40
2022-11-19T00:50:19.226Z,32.00
2022-11-19T00:55:20.845Z,37.57
2022-11-19T01:00:22.481Z,36.13
2022-11-19T01:05:24.148Z,33.53
2022-11-19T01:10:26.024Z,34.30
2022-11-19T01:15:27.671Z,37.13
2022-11-19T01:20:29.931Z,39.10
2022-11-19T01:25:31.570Z,35.13
2022-11-19T01:30:33.203Z,39.43
2022-11-19T01:35:34.965Z,37.23
2022-11-19T01:40:43.973Z,36.20
2022-11-19T01:45:49.997Z,36.20
2022-11-19T01:51:02.803Z,35.80
2022-11-19T01:56:06.151Z,35.90
2022-11-19T02:01:08.755Z,37.17
2022-11-19T02:06:11.872Z,37.23
2022-11-19T02:11:40.947Z,35.83
2022-11-19T02:17:03.580Z,34.10
2022-11-19T02:22:10.906Z,34.30
2022-11-19T02:28:01.946Z,37.50
2022-11-19T02:33:10.757Z,38.93
2022-11-19T02:38:30.961Z,35.23
2022-11-19T02:43:39.357Z,31.53
2022-11-19T02:48:46.377Z,34.17
2022-11-19T02:53:48.316Z,33.20
2022-11-19T02:59:12.061Z,33.57
2022-11-19T03:04:32.510Z,34.77
2022-11-19T03:09:38.966Z,39.67
2022-11-19T03:15:44.090Z,34.37
2022-11-19T03:20:57.559Z,31.97
2022-11-19T03:26:04.442Z,30.33
2022-11-19T03:31:06.832Z,30.07
2022-11-19T03:36:11.909Z,30.67
2022-11-19T03:41:15.865Z,25.67
2022-11-19T03:46:18.824Z,27.63
2022-11-19T03:51:26.409Z,27.60
2022-11-19T03:56:28.736Z,28.13
2022-11-19T04:01:31.099Z,25.57
2022-11-19T04:06:33.017Z,30.07
2022-11-19T04:11:34.639Z,25.13
2022-11-19T04:16:36.313Z,29.60
2022-11-19T04:21:38.081Z,32.30
2022-11-19T04:26:39.943Z,28.20
2022-11-19T04:31:41.642Z,25.00
2022-11-19T04:36:43.341Z,29.60
2022-11-19T04:41:44.990Z,29.53
2022-11-19T04:46:46.585Z,26.33
2022-11-19T04:51:48.235Z,22.13
2022-11-19T04:56:49.883Z,24.30
2022-11-19T05:01:52.113Z,21.53
2022-11-19T05:06:53.825Z,24.37
2022-11-19T05:11:55.435Z,21.77
2022-11-19T05:16:57.148Z,23.00
2022-11-19T05:21:58.761Z,23.23
2022-11-19T05:27:00.430Z,21.13
2022-11-19T05:32:02.425Z,19.07
2022-11-19T05:37:04.059Z,17.40
2022-11-19T05:42:05.982Z,17.03
2022-11-19T05:47:07.681Z,13.53
2022-11-19T05:52:10.445Z,16.53
2022-11-19T05:57:12.104Z,15.40
2022-11-19T06:02:13.799Z,16.17
2022-11-19T06:07:15.430Z,15.63
2022-11-19T06:12:17.330Z,17.10
2022-11-19T06:17:19.064Z,20.40
2022-11-19T06:22:20.744Z,17.97
2022-11-19T06:27:22.554Z,18.40
2022-11-19T06:32:24.246Z,21.20
2022-11-19T06:37:26.115Z,18.53
2022-11-19T06:42:36.569Z,17.83
2022-11-19T06:47:38.662Z,19.27
2022-11-19T06:52:40.478Z,17.17
2022-11-19T06:57:42.331Z,15.67
2022-11-19T07:02:43.960Z,15.73
2022-11-19T07:07:45.553Z,22.33
2022-11-19T07:12:47.196Z,17.87
2022-11-19T07:17:48.870Z,13.53
2022-11-19T07:22:54.819Z,17.97
2022-11-19T07:27:59.441Z,17.70
2022-11-19T07:33:01.177Z,18.17
2022-11-19T07:38:02.960Z,15.20
2022-11-19T07:43:10.613Z,18.57
2022-11-19T07:48:12.462Z,17.60
2022-11-19T07:53:30.171Z,15.93
2022-11-19T07:58:32.492Z,17.77
2022-11-19T08:03:34.220Z,16.20
2022-11-19T08:08:35.890Z,14.90
2022-11-19T08:13:39.232Z,19.60
2022-11-19T08:18:41.054Z,14.23
2022-11-19T08:23:54.337Z,15.73
2022-11-19T08:28:56.007Z,14.50
2022-11-19T08:33:57.894Z,13.50
2022-11-19T08:39:03.775Z,14.07
2022-11-19T08:44:05.622Z,12.93
2022-11-19T08:49:08.136Z,15.10
2022-11-19T08:54:09.834Z,14.43
2022-11-19T08:59:14.178Z,12.37
2022-11-19T09:04:16.320Z,13.73
2022-11-19T09:09:18.281Z,12.03
2022-11-19T09:14:20.217Z,10.40
2022-11-19T09:19:22.017Z,10.03
2022-11-19T09:24:23.708Z,8.83
2022-11-19T09:29:25.514Z,11.43
2022-11-19T09:34:27.463Z,8.43
2022-11-19T09:39:29.109Z,12.67
2022-11-19T09:44:44.230Z,11.80
2022-11-19T09:50:05.929Z,9.37
2022-11-19T09:55:16.623Z,8.87
2022-11-19T10:00:24.797Z,8.07
2022-11-19T10:05:45.679Z,8.87
2022-11-19T10:11:29.979Z,7.67
2022-11-19T10:16:52.522Z,8.80
2022-11-19T10:22:15.728Z,8.00
2022-11-19T10:27:35.608Z,9.80
2022-11-19T10:32:47.462Z,6.90
2022-11-19T10:37:55.407Z,8.40
2022-11-19T10:43:29.080Z,11.30
2022-11-19T10:48:52.416Z,6.27
2022-11-19T10:53:55.843Z,8.70
2022-11-19T10:59:21.900Z,5.90
2022-11-19T11:04:26.125Z,8.00
2022-11-19T11:09:28.524Z,8.53
2022-11-19T11:14:49.087Z,6.10
2022-11-19T11:20:04.917Z,5.53
2022-11-19T11:25:19.655Z,4.33
2022-11-19T11:30:21.530Z,5.90
2022-11-19T11:35:35.499Z,8.10
2022-11-19T11:40:39.027Z,6.27
2022-11-19T11:45:40.798Z,6.20
2022-11-19T11:50:45.519Z,5.30
2022-11-19T11:55:57.772Z,4.70
2022-11-19T12:01:18.332Z,3.80
2022-11-19T12:06:23.023Z,4.70
2022-11-19T12:11:56.317Z,6.37
2022-11-19T12:17:12.968Z,6.80
2022-11-19T12:22:42.941Z,5.07
2022-11-19T12:27:54.841Z,5.00
2022-11-19T12:33:20.078Z,4.63
2022-11-19T12:38:33.665Z,5.13
2022-11-19T12:43:54.361Z,4.53
2022-11-19T12:49:20.949Z,4.43
2022-11-19T12:54:41.252Z,5.63
2022-11-19T12:59:42.894Z,6.63
2022-11-19T13:05:10.561Z,6.13
2022-11-19T13:10:15.705Z,6.30
2022-11-19T13:15:29.051Z,6.70
2022-11-19T13:20:50.305Z,7.93
2022-11-19T13:26:16.033Z,6.47
2022-11-19T13:31:24.928Z,7.10
2022-11-19T13:36:40.195Z,7.67
2022-11-19T13:42:07.991Z,7.40
2022-11-19T13:47:34.786Z,7.77
2022-11-19T13:52:47.001Z,8.60
2022-11-19T13:57:48.969Z,6.90
2022-11-19T14:03:09.086Z,9.10
2022-11-19T14:08:43.309Z,8.53
2022-11-19T14:14:07.535Z,10.20
2022-11-19T14:19:33.050Z,13.33
2022-11-19T14:24:53.502Z,9.13
2022-11-19T14:30:08.891Z,10.80
2022-11-19T14:35:30.075Z,11.30
2022-11-19T14:40:33.450Z,9.70
2022-11-19T14:45:35.077Z,9.73
2022-11-19T14:50:36.710Z,18.93
2022-11-19T14:55:39.348Z,8.97
2022-11-19T15:00:41.795Z,8.57
2022-11-19T15:05:45.560Z,8.43
2022-11-19T15:11:04.228Z,9.67
2022-11-19T15:16:29.200Z,10.97
2022-11-19T15:21:40.418Z,16.93
2022-11-19T15:27:07.759Z,10.40
2022-11-19T15:32:15.606Z,11.40
2022-11-19T15:37:20.036Z,14.30
2022-11-19T15:42:32.971Z,13.57
2022-11-19T15:47:43.928Z,11.47
2022-11-19T15:52:58.485Z,11.07
2022-11-19T15:58:08.528Z,15.17
2022-11-19T16:03:10.709Z,18.47
2022-11-19T16:08:13.373Z,16.00
2022-11-19T16:13:42.839Z,15.97
2022-11-19T16:18:53.304Z,15.83
2022-11-19T16:24:14.146Z,14.93
2022-11-19T16:29:21.732Z,17.67
2022-11-19T16:34:25.336Z,11.27
2022-11-19T16:39:30.668Z,10.93
2022-11-19T16:44:32.365Z,14.77
2022-11-19T16:49:56.291Z,12.57
2022-11-19T16:54:58.209Z,10.33
2022-11-19T17:00:02.809Z,9.33
2022-11-19T17:05:15.268Z,11.27
2022-11-19T17:10:22.668Z,10.67
2022-11-19T17:15:36.941Z,13.10
2022-11-19T17:20:38.597Z,13.40
2022-11-19T17:26:07.197Z,11.47
2022-11-19T17:31:17.242Z,13.47
2022-11-19T17:36:19.465Z,13.47
2022-11-19T17:41:46.894Z,14.43
2022-11-19T17:46:48.561Z,13.23
2022-11-19T17:51:50.845Z,12.73
2022-11-19T17:56:52.633Z,25.17
2022-11-19T18:01:54.446Z,21.87
2022-11-19T18:06:56.173Z,22.67
2022-11-19T18:11:58.133Z,25.17
2022-11-19T18:16:59.769Z,24.93
2022-11-19T18:22:02.044Z,28.13
2022-11-19T18:27:11.923Z,23.63
2022-11-19T18:37:29.731Z,22.03
2022-11-19T18:42:31.428Z,19.30
2022-11-19T18:47:33.193Z,18.80
2022-11-19T18:52:40.729Z,20.17
2022-11-19T18:57:43.090Z,19.03
2022-11-19T19:02:44.772Z,16.97
2022-11-19T19:07:46.706Z,17.27
2022-11-19T19:12:48.381Z,18.03
2022-11-19T19:17:50.110Z,19.40
2022-11-19T19:22:51.826Z,25.63
2022-11-19T19:27:59.839Z,21.47
2022-11-19T19:33:01.580Z,21.13
2022-11-19T19:38:10.488Z,20.33
2022-11-19T19:43:14.425Z,30.10
2022-11-19T19:48:16.431Z,29.97
2022-11-19T19:53:18.317Z,29.90
2022-11-19T19:58:23.877Z,35.13
2022-11-19T20:19:14.489Z,25.30
2022-11-19T20:24:20.172Z,28.57
2022-11-19T20:29:23.925Z,25.93
2022-11-19T20:34:26.029Z,26.53
2022-11-19T20:39:30.078Z,23.53
2022-11-19T20:44:31.803Z,28.23
2022-11-19T20:49:35.896Z,24.37
2022-11-19T20:54:41.995Z,28.73
2022-11-19T20:59:44.608Z,24.67
2022-11-19T21:04:46.869Z,28.00
2022-11-19T21:09:49.007Z,23.20
2022-11-19T21:14:58.538Z,29.60
2022-11-19T21:20:00.283Z,88.27
2022-11-19T21:25:01.889Z,49.60
2022-11-19T21:30:08.620Z,58.90
2022-11-19T21:35:10.427Z,32.27
2022-11-19T21:40:12.861Z,24.70
2022-11-19T21:45:15.115Z,23.97
2022-11-19T21:50:16.929Z,20.30
2022-11-19T21:55:39.066Z,19.40
2022-11-19T22:00:41.370Z,19.30
2022-11-19T22:05:44.612Z,20.53
2022-11-19T22:10:51.383Z,21.27
2022-11-19T22:16:00.712Z,21.97
2022-11-19T22:27:25.520Z,25.67
2022-11-19T22:32:30.240Z,21.80
2022-11-19T22:37:32.105Z,19.03
2022-11-19T22:42:33.809Z,23.90
2022-11-19T22:47:35.872Z,23.13
2022-11-19T22:52:37.547Z,29.47
2022-11-19T22:57:39.264Z,28.33
2022-11-19T23:02:45.544Z,25.90
2022-11-19T23:07:47.289Z,22.67
2022-11-19T23:13:07.830Z,20.90
2022-11-19T23:18:09.757Z,24.13
2022-11-19T23:23:11.592Z,20.63
2022-11-19T23:28:13.597Z,23.47
2022-11-19T23:33:15.288Z,26.03
2022-11-19T23:38:17.054Z,22.77
2022-11-19T23:43:19.035Z,23.17
2022-11-19T23:48:20.781Z,24.03
2022-11-19T23:53:24.971Z,22.50
2022-11-19T23:58:27.039Z,20.47
